sensor_id;sensor_type;location;lat;lon;timestamp;pressure;altitude;pressure_sealevel;temperature;humidity
11198;BME280;5655;48.744;9.162;2024-02-14T00:00:18;96532.78;;;6.06;100.00
11198;BME280;5655;48.744;9.162;2024-02-14T00:02:44;96530.41;;;6.25;100.00
11198;BME280;5655;48.744;9.162;2024-02-14T00:05:10;96526.59;;;6.26;100.00
11198;BME280;5655;48.744;9.162;2024-02-14T00:07:37;96535.38;;;6.38;100.00
11198;BME280;5655;48.744;9.162;2024-02-14T00:10:02;96531.72;;;6.31;100.00
11198;BME280;5655;48.744;9.162;2024-02-14T00:12:28;96539.47;;;6.36;100.00
11198;BME280;5655;48.744;9.162;2024-02-14T00:14:53;96536.28;;;6.43;100.00
11198;BME280;5655;48.744;9.162;2024-02-14T00:17:18;96545.47;;;6.45;100.00
11198;BME280;5655;48.744;9.162;2024-02-14T00:19:44;96539.16;;;6.37;100.00
11198;BME280;5655;48.744;9.162;2024-02-14T00:22:09;96539.34;;;6.20;100.00
11198;BME280;5655;48.744;9.162;2024-02-14T00:24:34;96544.69;;;6.32;100.00
11198;BME280;5655;48.744;9.162;2024-02-14T00:27:01;96550.13;;;6.36;100.00
11198;BME280;5655;48.744;9.162;2024-02-14T00:29:28;96542.56;;;6.26;100.00
11198;BME280;5655;48.744;9.162;2024-02-14T00:31:53;96541.94;;;6.41;100.00
11198;BME280;5655;48.744;9.162;2024-02-14T00:34:18;96536.34;;;6.22;100.00
11198;BME280;5655;48.744;9.162;2024-02-14T00:36:44;96536.59;;;6.41;100.00
11198;BME280;5655;48.744;9.162;2024-02-14T00:39:09;96540.81;;;6.42;100.00
11198;BME280;5655;48.744;9.162;2024-02-14T00:41:35;96541.94;;;6.53;100.00
11198;BME280;5655;48.744;9.162;2024-02-14T00:44:01;96533.31;;;6.68;100.00
11198;BME280;5655;48.744;9.162;2024-02-14T00:46:28;96542.16;;;6.72;100.00
11198;BME280;5655;48.744;9.162;2024-02-14T00:48:53;96544.94;;;6.76;100.00
11198;BME280;5655;48.744;9.162;2024-02-14T00:51:19;96548.16;;;6.81;100.00
11198;BME280;5655;48.744;9.162;2024-02-14T00:53:45;96547.38;;;6.81;100.00
11198;BME280;5655;48.744;9.162;2024-02-14T00:56:10;96553.00;;;6.92;100.00
11198;BME280;5655;48.744;9.162;2024-02-14T00:58:36;96548.31;;;7.13;100.00
11198;BME280;5655;48.744;9.162;2024-02-14T01:01:01;96544.47;;;7.10;100.00
11198;BME280;5655;48.744;9.162;2024-02-14T01:03:27;96551.88;;;7.29;100.00
11198;BME280;5655;48.744;9.162;2024-02-14T01:05:52;96545.63;;;7.37;100.00
11198;BME280;5655;48.744;9.162;2024-02-14T01:08:17;96547.41;;;7.33;100.00
11198;BME280;5655;48.744;9.162;2024-02-14T01:10:43;96552.06;;;7.36;100.00
11198;BME280;5655;48.744;9.162;2024-02-14T01:13:08;96559.13;;;7.44;100.00
11198;BME280;5655;48.744;9.162;2024-02-14T01:15:34;96556.03;;;7.42;100.00
11198;BME280;5655;48.744;9.162;2024-02-14T01:17:59;96563.41;;;7.33;100.00
11198;BME280;5655;48.744;9.162;2024-02-14T01:20:25;96564.50;;;7.32;100.00
11198;BME280;5655;48.744;9.162;2024-02-14T01:22:50;96559.59;;;7.46;100.00
11198;BME280;5655;48.744;9.162;2024-02-14T01:25:16;96558.69;;;7.54;100.00
11198;BME280;5655;48.744;9.162;2024-02-14T01:27:41;96558.19;;;7.64;100.00
11198;BME280;5655;48.744;9.162;2024-02-14T01:30:08;96548.41;;;7.68;100.00
11198;BME280;5655;48.744;9.162;2024-02-14T01:32:34;96552.13;;;7.52;100.00
11198;BME280;5655;48.744;9.162;2024-02-14T01:34:59;96552.25;;;7.43;100.00
11198;BME280;5655;48.744;9.162;2024-02-14T01:37:26;96549.78;;;7.62;100.00
11198;BME280;5655;48.744;9.162;2024-02-14T01:39:51;96545.31;;;7.66;100.00
11198;BME280;5655;48.744;9.162;2024-02-14T01:42:16;96542.72;;;7.42;100.00
11198;BME280;5655;48.744;9.162;2024-02-14T01:44:42;96531.34;;;7.57;100.00
11198;BME280;5655;48.744;9.162;2024-02-14T01:47:09;96534.25;;;7.52;100.00
11198;BME280;5655;48.744;9.162;2024-02-14T01:49:35;96531.13;;;7.62;100.00
11198;BME280;5655;48.744;9.162;2024-02-14T01:52:02;96530.88;;;7.67;100.00
11198;BME280;5655;48.744;9.162;2024-02-14T01:54:29;96532.81;;;7.55;100.00
11198;BME280;5655;48.744;9.162;2024-02-14T01:56:56;96541.81;;;7.78;100.00
11198;BME280;5655;48.744;9.162;2024-02-14T01:59:21;96529.84;;;7.44;100.00
11198;BME280;5655;48.744;9.162;2024-02-14T02:01:48;96532.91;;;7.58;100.00
11198;BME280;5655;48.744;9.162;2024-02-14T02:04:14;96532.88;;;7.70;100.00
11198;BME280;5655;48.744;9.162;2024-02-14T02:06:39;96529.03;;;7.84;100.00
11198;BME280;5655;48.744;9.162;2024-02-14T02:09:06;96530.75;;;7.76;100.00
11198;BME280;5655;48.744;9.162;2024-02-14T02:11:42;96529.91;;;7.88;100.00
11198;BME280;5655;48.744;9.162;2024-02-14T02:14:08;96528.31;;;7.71;100.00
11198;BME280;5655;48.744;9.162;2024-02-14T02:16:33;96522.44;;;7.65;100.00
11198;BME280;5655;48.744;9.162;2024-02-14T02:18:59;96521.47;;;7.86;100.00
11198;BME280;5655;48.744;9.162;2024-02-14T02:21:24;96519.41;;;7.95;100.00
11198;BME280;5655;48.744;9.162;2024-02-14T02:23:49;96524.63;;;7.75;100.00
11198;BME280;5655;48.744;9.162;2024-02-14T02:26:14;96514.88;;;7.40;100.00
11198;BME280;5655;48.744;9.162;2024-02-14T02:28:40;96514.13;;;7.67;100.00
11198;BME280;5655;48.744;9.162;2024-02-14T02:31:05;96505.91;;;7.72;100.00
11198;BME280;5655;48.744;9.162;2024-02-14T02:33:31;96509.06;;;7.78;100.00
11198;BME280;5655;48.744;9.162;2024-02-14T02:35:56;96515.44;;;7.45;100.00
11198;BME280;5655;48.744;9.162;2024-02-14T02:38:21;96509.75;;;7.47;100.00
11198;BME280;5655;48.744;9.162;2024-02-14T02:40:47;96507.53;;;7.77;100.00
11198;BME280;5655;48.744;9.162;2024-02-14T02:43:13;96497.66;;;7.49;100.00
11198;BME280;5655;48.744;9.162;2024-02-14T02:45:38;96495.53;;;7.15;100.00
11198;BME280;5655;48.744;9.162;2024-02-14T02:48:04;96492.38;;;7.37;100.00
11198;BME280;5655;48.744;9.162;2024-02-14T02:50:29;96486.78;;;7.42;100.00
11198;BME280;5655;48.744;9.162;2024-02-14T02:52:55;96489.91;;;7.44;100.00
11198;BME280;5655;48.744;9.162;2024-02-14T02:55:21;96492.28;;;7.61;100.00
11198;BME280;5655;48.744;9.162;2024-02-14T02:57:46;96485.44;;;7.76;100.00
11198;BME280;5655;48.744;9.162;2024-02-14T03:00:12;96475.56;;;7.77;100.00
11198;BME280;5655;48.744;9.162;2024-02-14T03:02:39;96470.09;;;7.85;100.00
11198;BME280;5655;48.744;9.162;2024-02-14T03:05:07;96467.91;;;7.75;100.00
11198;BME280;5655;48.744;9.162;2024-02-14T03:07:35;96456.09;;;7.60;100.00
11198;BME280;5655;48.744;9.162;2024-02-14T03:10:00;96459.47;;;7.73;100.00
11198;BME280;5655;48.744;9.162;2024-02-14T03:12:26;96469.81;;;7.90;100.00
11198;BME280;5655;48.744;9.162;2024-02-14T03:14:53;96477.28;;;7.85;100.00
11198;BME280;5655;48.744;9.162;2024-02-14T03:17:19;96477.47;;;7.92;100.00
11198;BME280;5655;48.744;9.162;2024-02-14T03:19:44;96483.97;;;7.79;100.00
11198;BME280;5655;48.744;9.162;2024-02-14T03:22:10;96478.06;;;7.85;100.00
11198;BME280;5655;48.744;9.162;2024-02-14T03:24:35;96486.56;;;7.91;100.00
11198;BME280;5655;48.744;9.162;2024-02-14T03:27:02;96485.91;;;7.94;100.00
11198;BME280;5655;48.744;9.162;2024-02-14T03:29:29;96499.91;;;7.91;100.00
11198;BME280;5655;48.744;9.162;2024-02-14T03:31:54;96502.00;;;7.97;100.00
11198;BME280;5655;48.744;9.162;2024-02-14T03:34:22;96507.97;;;7.94;100.00
11198;BME280;5655;48.744;9.162;2024-02-14T03:36:47;96507.13;;;7.90;100.00
11198;BME280;5655;48.744;9.162;2024-02-14T03:39:12;96523.16;;;8.06;100.00
11198;BME280;5655;48.744;9.162;2024-02-14T03:41:38;96518.38;;;7.84;100.00
11198;BME280;5655;48.744;9.162;2024-02-14T03:44:03;96521.66;;;7.93;100.00
11198;BME280;5655;48.744;9.162;2024-02-14T03:46:29;96521.56;;;7.61;100.00
11198;BME280;5655;48.744;9.162;2024-02-14T03:48:54;96524.88;;;7.70;100.00
11198;BME280;5655;48.744;9.162;2024-02-14T03:51:20;96514.41;;;7.78;100.00
11198;BME280;5655;48.744;9.162;2024-02-14T03:53:47;96514.41;;;7.78;100.00
11198;BME280;5655;48.744;9.162;2024-02-14T03:56:13;96522.53;;;7.97;100.00
11198;BME280;5655;48.744;9.162;2024-02-14T03:58:39;96527.94;;;8.00;100.00
11198;BME280;5655;48.744;9.162;2024-02-14T04:01:05;96529.81;;;7.84;100.00
11198;BME280;5655;48.744;9.162;2024-02-14T04:03:30;96527.56;;;7.86;100.00
11198;BME280;5655;48.744;9.162;2024-02-14T04:05:56;96529.31;;;7.94;100.00
11198;BME280;5655;48.744;9.162;2024-02-14T04:08:22;96526.78;;;7.86;100.00
11198;BME280;5655;48.744;9.162;2024-02-14T04:10:47;96521.75;;;7.96;100.00
11198;BME280;5655;48.744;9.162;2024-02-14T04:13:15;96512.56;;;7.94;100.00
11198;BME280;5655;48.744;9.162;2024-02-14T04:15:41;96507.91;;;7.91;100.00
11198;BME280;5655;48.744;9.162;2024-02-14T04:18:08;96515.16;;;8.06;100.00
11198;BME280;5655;48.744;9.162;2024-02-14T04:20:34;96519.44;;;7.67;100.00
11198;BME280;5655;48.744;9.162;2024-02-14T04:23:00;96524.25;;;8.05;100.00
11198;BME280;5655;48.744;9.162;2024-02-14T04:25:25;96518.47;;;8.03;100.00
11198;BME280;5655;48.744;9.162;2024-02-14T04:27:51;96522.91;;;7.67;100.00
11198;BME280;5655;48.744;9.162;2024-02-14T04:30:16;96524.91;;;7.86;100.00
11198;BME280;5655;48.744;9.162;2024-02-14T04:32:42;96522.28;;;8.02;100.00
11198;BME280;5655;48.744;9.162;2024-02-14T04:35:09;96510.00;;;8.13;100.00
11198;BME280;5655;48.744;9.162;2024-02-14T04:37:34;96520.41;;;8.02;100.00
11198;BME280;5655;48.744;9.162;2024-02-14T04:39:59;96524.66;;;7.91;100.00
11198;BME280;5655;48.744;9.162;2024-02-14T04:42:25;96522.59;;;7.85;100.00
11198;BME280;5655;48.744;9.162;2024-02-14T04:44:50;96531.38;;;8.01;100.00
11198;BME280;5655;48.744;9.162;2024-02-14T04:47:15;96533.28;;;8.00;100.00
11198;BME280;5655;48.744;9.162;2024-02-14T04:49:41;96538.31;;;7.90;100.00
11198;BME280;5655;48.744;9.162;2024-02-14T04:52:06;96536.22;;;8.11;100.00
11198;BME280;5655;48.744;9.162;2024-02-14T04:54:33;96537.50;;;8.17;100.00
11198;BME280;5655;48.744;9.162;2024-02-14T04:56:58;96547.41;;;8.16;100.00
11198;BME280;5655;48.744;9.162;2024-02-14T04:59:23;96549.09;;;7.93;100.00
11198;BME280;5655;48.744;9.162;2024-02-14T05:01:49;96549.81;;;8.06;100.00
11198;BME280;5655;48.744;9.162;2024-02-14T05:04:15;96551.16;;;8.00;100.00
11198;BME280;5655;48.744;9.162;2024-02-14T05:06:42;96540.75;;;7.95;100.00
11198;BME280;5655;48.744;9.162;2024-02-14T05:09:07;96538.84;;;7.95;100.00
11198;BME280;5655;48.744;9.162;2024-02-14T05:11:35;96537.81;;;7.84;100.00
11198;BME280;5655;48.744;9.162;2024-02-14T05:14:01;96530.13;;;7.83;100.00
11198;BME280;5655;48.744;9.162;2024-02-14T05:16:27;96524.41;;;7.81;100.00
11198;BME280;5655;48.744;9.162;2024-02-14T05:18:53;96532.91;;;7.86;100.00
11198;BME280;5655;48.744;9.162;2024-02-14T05:21:20;96529.72;;;7.81;100.00
11198;BME280;5655;48.744;9.162;2024-02-14T05:23:45;96539.69;;;7.84;100.00
11198;BME280;5655;48.744;9.162;2024-02-14T05:26:10;96537.13;;;7.87;100.00
11198;BME280;5655;48.744;9.162;2024-02-14T05:28:35;96532.97;;;7.90;100.00
11198;BME280;5655;48.744;9.162;2024-02-14T05:31:01;96529.91;;;7.88;100.00
11198;BME280;5655;48.744;9.162;2024-02-14T05:33:28;96522.63;;;8.00;100.00
11198;BME280;5655;48.744;9.162;2024-02-14T05:35:54;96525.63;;;7.99;100.00
11198;BME280;5655;48.744;9.162;2024-02-14T05:38:19;96532.09;;;8.13;100.00
11198;BME280;5655;48.744;9.162;2024-02-14T05:40:45;96532.88;;;8.14;100.00
11198;BME280;5655;48.744;9.162;2024-02-14T05:43:11;96534.75;;;7.98;100.00
11198;BME280;5655;48.744;9.162;2024-02-14T05:45:36;96533.97;;;8.13;100.00
11198;BME280;5655;48.744;9.162;2024-02-14T05:48:02;96528.91;;;8.08;100.00
11198;BME280;5655;48.744;9.162;2024-02-14T05:50:28;96525.13;;;8.09;100.00
11198;BME280;5655;48.744;9.162;2024-02-14T05:52:54;96518.63;;;7.94;100.00
11198;BME280;5655;48.744;9.162;2024-02-14T05:55:19;96523.16;;;8.06;100.00
11198;BME280;5655;48.744;9.162;2024-02-14T05:57:44;96526.59;;;8.06;100.00
11198;BME280;5655;48.744;9.162;2024-02-14T06:00:10;96518.44;;;8.15;100.00
11198;BME280;5655;48.744;9.162;2024-02-14T06:02:37;96522.81;;;8.23;100.00
11198;BME280;5655;48.744;9.162;2024-02-14T06:05:05;96525.34;;;7.60;100.00
11198;BME280;5655;48.744;9.162;2024-02-14T06:07:31;96534.44;;;7.87;100.00
11198;BME280;5655;48.744;9.162;2024-02-14T06:09:56;96528.78;;;7.89;100.00
11198;BME280;5655;48.744;9.162;2024-02-14T06:12:21;96525.81;;;8.06;100.00
11198;BME280;5655;48.744;9.162;2024-02-14T06:14:50;96532.59;;;8.03;100.00
11198;BME280;5655;48.744;9.162;2024-02-14T06:17:15;96530.28;;;8.02;100.00
11198;BME280;5655;48.744;9.162;2024-02-14T06:19:41;96536.44;;;7.90;100.00
11198;BME280;5655;48.744;9.162;2024-02-14T06:22:07;96529.03;;;7.84;100.00
11198;BME280;5655;48.744;9.162;2024-02-14T06:24:32;96534.06;;;8.01;100.00
11198;BME280;5655;48.744;9.162;2024-02-14T06:26:57;96528.81;;;8.04;100.00
11198;BME280;5655;48.744;9.162;2024-02-14T06:29:23;96538.00;;;8.07;100.00
11198;BME280;5655;48.744;9.162;2024-02-14T06:31:48;96538.75;;;7.92;100.00
11198;BME280;5655;48.744;9.162;2024-02-14T06:34:14;96539.22;;;7.94;100.00
11198;BME280;5655;48.744;9.162;2024-02-14T06:36:39;96553.03;;;8.27;100.00
11198;BME280;5655;48.744;9.162;2024-02-14T06:39:06;96550.44;;;8.15;100.00
11198;BME280;5655;48.744;9.162;2024-02-14T06:41:32;96558.22;;;8.08;100.00
11198;BME280;5655;48.744;9.162;2024-02-14T06:43:58;96560.41;;;8.18;100.00
11198;BME280;5655;48.744;9.162;2024-02-14T06:46:23;96562.00;;;8.07;100.00
11198;BME280;5655;48.744;9.162;2024-02-14T06:48:48;96555.00;;;7.87;100.00
11198;BME280;5655;48.744;9.162;2024-02-14T06:51:14;96556.41;;;8.12;100.00
11198;BME280;5655;48.744;9.162;2024-02-14T06:53:39;96565.09;;;8.09;100.00
11198;BME280;5655;48.744;9.162;2024-02-14T06:56:05;96561.97;;;8.19;100.00
11198;BME280;5655;48.744;9.162;2024-02-14T06:58:30;96555.66;;;8.11;100.00
11198;BME280;5655;48.744;9.162;2024-02-14T07:00:55;96557.59;;;7.99;100.00
11198;BME280;5655;48.744;9.162;2024-02-14T07:03:21;96545.88;;;7.88;100.00
11198;BME280;5655;48.744;9.162;2024-02-14T07:05:46;96555.31;;;8.13;100.00
11198;BME280;5655;48.744;9.162;2024-02-14T07:08:12;96562.59;;;8.00;100.00
11198;BME280;5655;48.744;9.162;2024-02-14T07:10:37;96562.06;;;7.95;100.00
11198;BME280;5655;48.744;9.162;2024-02-14T07:13:02;96558.72;;;7.98;100.00
11198;BME280;5655;48.744;9.162;2024-02-14T07:15:28;96563.91;;;8.06;100.00
11198;BME280;5655;48.744;9.162;2024-02-14T07:17:57;96558.84;;;8.17;100.00
11198;BME280;5655;48.744;9.162;2024-02-14T07:20:23;96564.56;;;8.31;100.00
11198;BME280;5655;48.744;9.162;2024-02-14T07:22:51;96572.66;;;8.35;100.00
11198;BME280;5655;48.744;9.162;2024-02-14T07:25:18;96571.47;;;8.63;100.00
11198;BME280;5655;48.744;9.162;2024-02-14T07:27:44;96582.66;;;8.53;100.00
11198;BME280;5655;48.744;9.162;2024-02-14T07:30:11;96571.47;;;8.63;100.00
11198;BME280;5655;48.744;9.162;2024-02-14T07:32:37;96577.66;;;8.68;100.00
11198;BME280;5655;48.744;9.162;2024-02-14T07:35:03;96580.59;;;8.47;100.00
11198;BME280;5655;48.744;9.162;2024-02-14T07:37:30;96580.66;;;8.97;100.00
11198;BME280;5655;48.744;9.162;2024-02-14T07:39:55;96576.88;;;8.98;100.00
11198;BME280;5655;48.744;9.162;2024-02-14T07:42:21;96578.63;;;8.91;100.00
11198;BME280;5655;48.744;9.162;2024-02-14T07:44:46;96578.31;;;9.11;100.00
11198;BME280;5655;48.744;9.162;2024-02-14T07:47:11;96580.47;;;9.22;100.00
11198;BME280;5655;48.744;9.162;2024-02-14T07:49:37;96585.03;;;9.21;100.00
11198;BME280;5655;48.744;9.162;2024-02-14T07:52:03;96586.78;;;9.48;100.00
11198;BME280;5655;48.744;9.162;2024-02-14T07:54:28;96590.75;;;9.39;100.00
11198;BME280;5655;48.744;9.162;2024-02-14T07:56:53;96594.34;;;9.46;100.00
11198;BME280;5655;48.744;9.162;2024-02-14T07:59:19;96601.22;;;9.82;100.00
11198;BME280;5655;48.744;9.162;2024-02-14T08:01:45;96604.69;;;9.83;100.00
11198;BME280;5655;48.744;9.162;2024-02-14T08:04:11;96602.63;;;9.95;100.00
11198;BME280;5655;48.744;9.162;2024-02-14T08:06:36;96612.72;;;10.21;100.00
11198;BME280;5655;48.744;9.162;2024-02-14T08:09:01;96607.78;;;10.23;100.00
11198;BME280;5655;48.744;9.162;2024-02-14T08:11:31;96618.53;;;10.27;100.00
11198;BME280;5655;48.744;9.162;2024-02-14T08:13:56;96616.34;;;10.32;100.00
11198;BME280;5655;48.744;9.162;2024-02-14T08:16:23;96621.00;;;10.35;100.00
11198;BME280;5655;48.744;9.162;2024-02-14T08:18:48;96620.97;;;10.55;100.00
11198;BME280;5655;48.744;9.162;2024-02-14T08:21:16;96622.59;;;10.40;100.00
11198;BME280;5655;48.744;9.162;2024-02-14T08:23:41;96621.06;;;10.39;100.00
11198;BME280;5655;48.744;9.162;2024-02-14T08:26:07;96616.88;;;10.61;100.00
11198;BME280;5655;48.744;9.162;2024-02-14T08:28:36;96615.97;;;10.76;100.00
11198;BME280;5655;48.744;9.162;2024-02-14T08:31:02;96619.22;;;10.66;100.00
11198;BME280;5655;48.744;9.162;2024-02-14T08:33:28;96630.28;;;10.41;100.00
11198;BME280;5655;48.744;9.162;2024-02-14T08:35:53;96628.78;;;10.86;100.00
11198;BME280;5655;48.744;9.162;2024-02-14T08:38:22;96626.91;;;10.67;100.00
11198;BME280;5655;48.744;9.162;2024-02-14T08:40:48;96636.09;;;10.89;100.00
11198;BME280;5655;48.744;9.162;2024-02-14T08:43:13;96629.06;;;10.81;100.00
11198;BME280;5655;48.744;9.162;2024-02-14T08:45:39;96643.16;;;11.01;100.00
11198;BME280;5655;48.744;9.162;2024-02-14T08:48:04;96638.47;;;10.94;100.00
11198;BME280;5655;48.744;9.162;2024-02-14T08:50:30;96634.38;;;11.00;100.00
11198;BME280;5655;48.744;9.162;2024-02-14T08:52:55;96632.53;;;11.30;100.00
11198;BME280;5655;48.744;9.162;2024-02-14T08:55:21;96633.16;;;11.20;100.00
11198;BME280;5655;48.744;9.162;2024-02-14T08:57:46;96630.44;;;11.17;100.00
11198;BME280;5655;48.744;9.162;2024-02-14T09:00:15;96629.66;;;11.16;100.00
11198;BME280;5655;48.744;9.162;2024-02-14T09:02:45;96629.31;;;10.95;100.00
11198;BME280;5655;48.744;9.162;2024-02-14T09:05:12;96632.94;;;11.06;100.00
11198;BME280;5655;48.744;9.162;2024-02-14T09:07:37;96634.47;;;11.07;100.00
11198;BME280;5655;48.744;9.162;2024-02-14T09:10:03;96629.78;;;11.01;100.00
11198;BME280;5655;48.744;9.162;2024-02-14T09:12:29;96633.88;;;11.17;100.00
11198;BME280;5655;48.744;9.162;2024-02-14T09:14:54;96635.31;;;11.11;100.00
11198;BME280;5655;48.744;9.162;2024-02-14T09:17:22;96629.34;;;11.21;100.00
11198;BME280;5655;48.744;9.162;2024-02-14T09:19:47;96637.16;;;11.07;100.00
11198;BME280;5655;48.744;9.162;2024-02-14T09:22:13;96631.41;;;11.31;100.00
11198;BME280;5655;48.744;9.162;2024-02-14T09:24:43;96631.88;;;11.37;100.00
11198;BME280;5655;48.744;9.162;2024-02-14T09:27:09;96646.84;;;11.15;100.00
11198;BME280;5655;48.744;9.162;2024-02-14T09:29:34;96648.00;;;11.41;100.00
11198;BME280;5655;48.744;9.162;2024-02-14T09:32:02;96637.44;;;11.51;100.00
11198;BME280;5655;48.744;9.162;2024-02-14T09:34:28;96640.69;;;11.64;100.00
11198;BME280;5655;48.744;9.162;2024-02-14T09:36:53;96635.41;;;11.71;100.00
11198;BME280;5655;48.744;9.162;2024-02-14T09:39:21;96643.38;;;11.37;100.00
11198;BME280;5655;48.744;9.162;2024-02-14T09:41:51;96638.16;;;11.74;100.00
11198;BME280;5655;48.744;9.162;2024-02-14T09:44:17;96641.50;;;11.68;100.00
11198;BME280;5655;48.744;9.162;2024-02-14T09:46:43;96634.78;;;11.77;100.00
11198;BME280;5655;48.744;9.162;2024-02-14T09:49:08;96630.91;;;11.75;100.00
11198;BME280;5655;48.744;9.162;2024-02-14T09:51:34;96619.38;;;12.04;100.00
11198;BME280;5655;48.744;9.162;2024-02-14T09:54:00;96632.13;;;12.11;100.00
11198;BME280;5655;48.744;9.162;2024-02-14T09:56:29;96631.44;;;12.17;100.00
11198;BME280;5655;48.744;9.162;2024-02-14T09:58:54;96627.09;;;12.43;100.00
11198;BME280;5655;48.744;9.162;2024-02-14T10:01:25;96630.28;;;12.52;100.00
11198;BME280;5655;48.744;9.162;2024-02-14T10:03:52;96633.31;;;12.47;100.00
11198;BME280;5655;48.744;9.162;2024-02-14T10:06:18;96622.78;;;12.68;100.00
11198;BME280;5655;48.744;9.162;2024-02-14T10:08:48;96626.31;;;13.20;100.00
11198;BME280;5655;48.744;9.162;2024-02-14T10:11:17;96642.81;;;13.18;100.00
11198;BME280;5655;48.744;9.162;2024-02-14T10:13:45;96623.63;;;13.20;100.00
11198;BME280;5655;48.744;9.162;2024-02-14T10:16:12;96626.78;;;12.88;100.00
11198;BME280;5655;48.744;9.162;2024-02-14T10:18:38;96621.59;;;13.09;100.00
11198;BME280;5655;48.744;9.162;2024-02-14T10:21:04;96622.69;;;13.01;100.00
11198;BME280;5655;48.744;9.162;2024-02-14T10:23:30;96625.59;;;13.26;100.00
11198;BME280;5655;48.744;9.162;2024-02-14T10:25:56;96615.94;;;13.18;100.00
11198;BME280;5655;48.744;9.162;2024-02-14T10:28:22;96621.13;;;13.48;100.00
11198;BME280;5655;48.744;9.162;2024-02-14T10:30:49;96617.41;;;13.63;100.00
11198;BME280;5655;48.744;9.162;2024-02-14T10:33:18;96623.00;;;14.09;100.00
11198;BME280;5655;48.744;9.162;2024-02-14T10:35:44;96617.59;;;14.09;100.00
11198;BME280;5655;48.744;9.162;2024-02-14T10:38:11;96621.53;;;14.33;100.00
11198;BME280;5655;48.744;9.162;2024-02-14T10:40:36;96642.75;;;14.41;100.00
11198;BME280;5655;48.744;9.162;2024-02-14T10:43:05;96620.84;;;14.50;100.00
11198;BME280;5655;48.744;9.162;2024-02-14T10:45:30;96613.22;;;14.91;100.00
11198;BME280;5655;48.744;9.162;2024-02-14T10:47:57;96614.75;;;14.85;100.00
11198;BME280;5655;48.744;9.162;2024-02-14T10:50:27;96608.97;;;14.93;100.00
11198;BME280;5655;48.744;9.162;2024-02-14T10:52:57;96612.44;;;14.97;100.00
11198;BME280;5655;48.744;9.162;2024-02-14T10:55:24;96618.63;;;15.23;100.00
11198;BME280;5655;48.744;9.162;2024-02-14T10:57:53;96618.59;;;15.51;100.00
11198;BME280;5655;48.744;9.162;2024-02-14T11:00:20;96614.72;;;15.59;100.00
11198;BME280;5655;48.744;9.162;2024-02-14T11:02:46;96617.06;;;15.29;100.00
11198;BME280;5655;48.744;9.162;2024-02-14T11:05:13;96619.00;;;15.39;100.00
11198;BME280;5655;48.744;9.162;2024-02-14T11:07:47;96623.97;;;15.72;100.00
11198;BME280;5655;48.744;9.162;2024-02-14T11:10:15;96639.41;;;15.15;100.00
11198;BME280;5655;48.744;9.162;2024-02-14T11:12:41;96638.66;;;15.18;100.00
11198;BME280;5655;48.744;9.162;2024-02-14T11:15:17;96643.16;;;14.54;100.00
11198;BME280;5655;48.744;9.162;2024-02-14T11:17:43;96642.69;;;14.31;100.00
11198;BME280;5655;48.744;9.162;2024-02-14T11:23:05;96631.59;;;14.36;100.00
11198;BME280;5655;48.744;9.162;2024-02-14T11:25:33;96628.38;;;14.13;100.00
11198;BME280;5655;48.744;9.162;2024-02-14T11:28:15;96631.41;;;14.00;100.00
11198;BME280;5655;48.744;9.162;2024-02-14T11:30:42;96630.56;;;13.82;100.00
11198;BME280;5655;48.744;9.162;2024-02-14T11:33:23;96627.88;;;13.89;100.00
11198;BME280;5655;48.744;9.162;2024-02-14T11:35:53;96628.75;;;14.07;100.00
11198;BME280;5655;48.744;9.162;2024-02-14T11:38:20;96628.28;;;13.91;100.00
11198;BME280;5655;48.744;9.162;2024-02-14T11:40:45;96611.78;;;13.96;100.00
11198;BME280;5655;48.744;9.162;2024-02-14T11:43:18;96629.84;;;13.92;100.00
11198;BME280;5655;48.744;9.162;2024-02-14T11:45:45;96635.56;;;13.84;100.00
11198;BME280;5655;48.744;9.162;2024-02-14T11:48:12;96628.69;;;13.93;100.00
11198;BME280;5655;48.744;9.162;2024-02-14T11:50:41;96626.09;;;14.18;100.00
11198;BME280;5655;48.744;9.162;2024-02-14T11:53:09;96627.09;;;13.85;100.00
11198;BME280;5655;48.744;9.162;2024-02-14T11:55:39;96629.06;;;13.95;100.00
11198;BME280;5655;48.744;9.162;2024-02-14T11:58:09;96627.19;;;14.06;100.00
11198;BME280;5655;48.744;9.162;2024-02-14T12:00:38;96627.59;;;14.01;100.00
11198;BME280;5655;48.744;9.162;2024-02-14T12:03:07;96629.53;;;14.12;100.00
11198;BME280;5655;48.744;9.162;2024-02-14T12:05:34;96632.56;;;14.06;100.00
11198;BME280;5655;48.744;9.162;2024-02-14T12:08:00;96633.38;;;14.11;100.00
11198;BME280;5655;48.744;9.162;2024-02-14T12:10:26;96637.69;;;14.29;100.00
11198;BME280;5655;48.744;9.162;2024-02-14T12:12:52;96632.22;;;14.12;100.00
11198;BME280;5655;48.744;9.162;2024-02-14T12:15:17;96638.66;;;13.89;100.00
11198;BME280;5655;48.744;9.162;2024-02-14T12:17:47;96639.66;;;14.39;100.00
11198;BME280;5655;48.744;9.162;2024-02-14T12:20:14;96630.09;;;14.63;100.00
11198;BME280;5655;48.744;9.162;2024-02-14T12:22:40;96639.41;;;15.65;100.00
11198;BME280;5655;48.744;9.162;2024-02-14T12:25:07;96644.78;;;15.19;100.00
11198;BME280;5655;48.744;9.162;2024-02-14T12:27:36;96643.22;;;14.82;100.00
11198;BME280;5655;48.744;9.162;2024-02-14T12:30:06;96645.56;;;14.91;100.00
11198;BME280;5655;48.744;9.162;2024-02-14T12:32:31;96635.94;;;14.86;100.00
11198;BME280;5655;48.744;9.162;2024-02-14T12:34:57;96639.00;;;14.95;100.00
11198;BME280;5655;48.744;9.162;2024-02-14T12:37:25;96623.22;;;14.90;100.00
11198;BME280;5655;48.744;9.162;2024-02-14T12:39:51;96627.84;;;15.25;100.00
11198;BME280;5655;48.744;9.162;2024-02-14T12:42:18;96625.53;;;15.20;100.00
11198;BME280;5655;48.744;9.162;2024-02-14T12:44:50;96631.66;;;14.64;100.00
11198;BME280;5655;48.744;9.162;2024-02-14T12:47:15;96623.22;;;14.83;100.00
11198;BME280;5655;48.744;9.162;2024-02-14T12:49:40;96622.06;;;15.13;100.00
11198;BME280;5655;48.744;9.162;2024-02-14T12:52:06;96622.84;;;14.95;100.00
11198;BME280;5655;48.744;9.162;2024-02-14T12:54:31;96618.63;;;15.26;100.00
11198;BME280;5655;48.744;9.162;2024-02-14T12:56:56;96614.34;;;15.43;100.00
11198;BME280;5655;48.744;9.162;2024-02-14T12:59:22;96606.22;;;15.75;100.00
11198;BME280;5655;48.744;9.162;2024-02-14T13:01:47;96601.09;;;16.09;100.00
11198;BME280;5655;48.744;9.162;2024-02-14T13:04:13;96606.19;;;15.85;100.00